Time;durP1;ratioP1;P1;durP2;ratioP2;P2;SDS_P1;SDS_P2;PMS_P1;PMS_P2;Temp;Humidity;BMP_temperature;BMP_pressure;BME280_temperature;BME280_humidity;BME280_pressure;Samples;Min_cycle;Max_cycle;Signal;HPM_P1;HPM_P2
2021/03/14 00:01:43;;;;;;;16.65;2.60;;;7.40;99.90;;;;;;5088891;28;20270;-73
2021/03/14 00:04:09;;;;;;;18.25;3.13;;;7.40;99.90;;;;;;5105288;27;20718;-74
2021/03/14 00:06:36;;;;;;;14.35;2.90;;;7.40;99.90;;;;;;5107514;27;20201;-75
2021/03/14 00:09:03;;;;;;;17.83;3.38;;;7.40;99.90;;;;;;5108043;27;20652;-74
2021/03/14 00:11:30;;;;;;;16.23;3.03;;;7.40;99.90;;;;;;5108318;27;20190;-75
2021/03/14 00:13:56;;;;;;;27.75;3.00;;;7.40;99.90;;;;;;5090699;28;20330;-74
2021/03/14 00:16:23;;;;;;;21.33;3.40;;;7.40;99.90;;;;;;5107181;27;20208;-74
2021/03/14 00:18:50;;;;;;;17.33;2.90;;;7.40;99.90;;;;;;5108432;27;20201;-74
2021/03/14 00:21:19;;;;;;;27.42;3.10;;;7.40;99.90;;;;;;5107524;28;20217;-74
2021/03/14 00:23:45;;;;;;;20.05;2.63;;;7.30;99.90;;;;;;5104720;27;20575;-74
2021/03/14 00:26:12;;;;;;;14.90;3.05;;;7.30;99.90;;;;;;5108995;27;20657;-74
2021/03/14 00:28:38;;;;;;;20.08;3.70;;;7.30;99.90;;;;;;5105663;27;20197;-73
2021/03/14 00:31:05;;;;;;;18.05;2.90;;;7.30;99.90;;;;;;5106405;27;20653;-74
2021/03/14 00:33:32;;;;;;;22.20;2.75;;;7.30;99.90;;;;;;5106002;27;20661;-74
2021/03/14 00:35:59;;;;;;;22.33;2.67;;;7.30;99.90;;;;;;5106194;27;20254;-75
2021/03/14 00:38:25;;;;;;;27.70;3.35;;;7.30;99.90;;;;;;5104791;27;22124;-74
2021/03/14 00:40:51;;;;;;;20.70;2.97;;;7.30;99.90;;;;;;5106114;28;20224;-74
2021/03/14 00:43:18;;;;;;;19.85;3.58;;;7.30;99.90;;;;;;5104533;28;20205;-74
2021/03/14 00:45:44;;;;;;;23.25;3.00;;;7.30;99.90;;;;;;5104999;27;20251;-75
2021/03/14 00:48:10;;;;;;;20.27;2.80;;;7.30;99.90;;;;;;5104815;27;20201;-74
2021/03/14 00:50:41;;;;;;;22.45;3.10;;;7.30;99.90;;;;;;5085120;28;20239;-75
2021/03/14 00:53:12;;;;;;;19.15;3.08;;;7.30;99.90;;;;;;5087500;28;20215;-75
2021/03/14 00:55:45;;;;;;;15.85;2.97;;;7.30;99.90;;;;;;5088841;28;20202;-75
2021/03/14 00:58:12;;;;;;;22.23;3.05;;;7.30;99.90;;;;;;5106757;28;20200;-73
2021/03/14 01:00:39;;;;;;;22.40;3.33;;;7.30;99.90;;;;;;5088322;28;20551;-75
2021/03/14 01:03:05;;;;;;;20.67;3.42;;;7.40;99.90;;;;;;5106896;27;20204;-74
2021/03/14 01:05:39;;;;;;;21.95;3.30;;;7.30;99.90;;;;;;5102860;27;20283;-74
2021/03/14 01:08:06;;;;;;;21.30;3.83;;;7.40;99.90;;;;;;5087152;27;20228;-75
2021/03/14 01:10:37;;;;;;;24.20;4.10;;;7.40;99.90;;;;;;5088547;28;20297;-75
2021/03/14 01:13:09;;;;;;;17.65;3.22;;;7.40;99.90;;;;;;5088273;28;20670;-75
2021/03/14 01:15:36;;;;;;;17.13;3.03;;;7.40;99.90;;;;;;5087709;28;20197;-73
2021/03/14 01:18:05;;;;;;;22.67;3.20;;;7.40;99.90;;;;;;5088161;28;20277;-75
2021/03/14 01:20:32;;;;;;;17.58;2.83;;;7.40;99.90;;;;;;5084552;28;20232;-75
2021/03/14 01:22:59;;;;;;;20.33;3.40;;;7.40;99.90;;;;;;5105066;28;20212;-76
2021/03/14 01:25:27;;;;;;;35.38;3.47;;;7.40;99.90;;;;;;5082113;28;20247;-74
2021/03/14 01:27:54;;;;;;;24.83;3.47;;;7.40;99.90;;;;;;5104412;28;20253;-75
2021/03/14 01:30:21;;;;;;;18.88;3.58;;;7.40;99.90;;;;;;5104879;28;20201;-75
2021/03/14 01:32:48;;;;;;;19.88;3.00;;;7.30;99.90;;;;;;5104076;28;20665;-74
2021/03/14 01:35:17;;;;;;;24.33;3.17;;;7.30;99.90;;;;;;5106491;27;20679;-73
2021/03/14 01:37:46;;;;;;;28.77;3.67;;;7.30;99.90;;;;;;5085478;28;20782;-74
2021/03/14 01:40:23;;;;;;;31.88;3.20;;;7.20;99.90;;;;;;5086511;28;20576;-75
2021/03/14 01:42:50;;;;;;;29.02;3.22;;;7.20;99.90;;;;;;5086887;28;20201;-75
2021/03/14 01:45:18;;;;;;;19.48;2.80;;;7.20;99.90;;;;;;5106507;27;20189;-74
2021/03/14 01:47:46;;;;;;;21.30;2.88;;;7.20;99.90;;;;;;5104387;28;20270;-74
2021/03/14 01:50:14;;;;;;;12.75;3.10;;;7.20;99.90;;;;;;5083349;28;20193;-74
2021/03/14 01:52:41;;;;;;;15.93;2.97;;;7.20;99.90;;;;;;5101750;28;20692;-74
2021/03/14 01:55:10;;;;;;;22.42;3.55;;;7.10;99.90;;;;;;5101477;28;20596;-75
2021/03/14 01:57:38;;;;;;;27.92;3.45;;;7.10;99.90;;;;;;5104412;28;20604;-75
2021/03/14 02:00:07;;;;;;;20.25;3.40;;;7.10;99.90;;;;;;5104793;28;20590;-75
2021/03/14 02:02:42;;;;;;;17.35;2.47;;;7.10;99.90;;;;;;5103957;28;20303;-75
2021/03/14 02:05:16;;;;;;;19.55;3.17;;;7.10;99.90;;;;;;5087134;28;20200;-74
2021/03/14 02:07:45;;;;;;;26.17;3.30;;;7.10;99.90;;;;;;5088311;28;20226;-75
2021/03/14 02:10:20;;;;;;;18.25;2.90;;;7.10;99.90;;;;;;5101741;28;20681;-74
2021/03/14 02:12:57;;;;;;;23.48;3.78;;;7.10;99.90;;;;;;5104622;28;20575;-75
2021/03/14 02:15:29;;;;;;;29.42;3.25;;;7.10;99.90;;;;;;5087802;28;20231;-74
2021/03/14 02:17:58;;;;;;;20.23;3.25;;;7.10;99.90;;;;;;5104699;28;20744;-75
2021/03/14 02:20:28;;;;;;;19.27;3.42;;;7.10;99.90;;;;;;5082334;28;20218;-75
2021/03/14 02:23:11;;;;;;;20.10;2.58;;;7.10;99.90;;;;;;5103874;28;20202;-75
2021/03/14 02:25:47;;;;;;;19.80;2.80;;;7.10;99.90;;;;;;5085122;28;20208;-74
2021/03/14 02:28:20;;;;;;;19.83;2.95;;;7.10;99.90;;;;;;5089979;28;20200;-75
2021/03/14 02:30:49;;;;;;;20.77;3.25;;;7.10;99.90;;;;;;5105987;27;20254;-74
2021/03/14 02:33:20;;;;;;;17.92;2.90;;;7.10;99.90;;;;;;5108705;27;20597;-74
2021/03/14 02:35:48;;;;;;;32.15;4.43;;;7.10;99.90;;;;;;5107043;27;20202;-75
2021/03/14 02:38:15;;;;;;;22.38;3.42;;;7.10;99.90;;;;;;5110704;27;20742;-75
2021/03/14 02:40:48;;;;;;;19.15;3.03;;;7.10;99.90;;;;;;5108009;27;20230;-75
2021/03/14 02:43:17;;;;;;;24.50;3.40;;;7.10;99.90;;;;;;5088459;27;20275;-74
2021/03/14 02:45:44;;;;;;;23.13;3.17;;;7.10;99.90;;;;;;5108834;27;20799;-74
2021/03/14 02:48:16;;;;;;;15.10;2.40;;;7.10;99.90;;;;;;5091898;28;20216;-74
2021/03/14 02:50:43;;;;;;;23.20;3.20;;;7.10;99.90;;;;;;5107476;27;20222;-74
2021/03/14 02:53:10;;;;;;;33.15;2.83;;;7.10;99.90;;;;;;5110598;27;20254;-74
2021/03/14 02:55:37;;;;;;;17.38;2.90;;;7.10;99.90;;;;;;5107753;27;20250;-74
2021/03/14 02:58:04;;;;;;;20.63;3.17;;;7.10;99.90;;;;;;5109055;27;20205;-75
2021/03/14 03:00:34;;;;;;;21.02;3.08;;;7.10;99.90;;;;;;5106366;27;20209;-73
2021/03/14 03:03:04;;;;;;;18.13;3.97;;;7.10;99.90;;;;;;5108210;27;20224;-74
2021/03/14 03:05:32;;;;;;;24.55;3.05;;;7.10;99.90;;;;;;5105740;27;20205;-73
2021/03/14 03:07:59;;;;;;;16.65;3.08;;;7.10;99.90;;;;;;5106854;27;20213;-75
2021/03/14 03:10:28;;;;;;;18.38;2.63;;;7.10;99.90;;;;;;5107481;27;20185;-74
2021/03/14 03:12:57;;;;;;;27.40;3.45;;;7.10;99.90;;;;;;5106818;27;20657;-74
2021/03/14 03:15:25;;;;;;;22.13;3.08;;;7.10;99.90;;;;;;5108234;27;20205;-75
2021/03/14 03:17:53;;;;;;;23.50;3.15;;;7.10;99.90;;;;;;5106624;27;20298;-75
2021/03/14 03:20:20;;;;;;;14.02;2.20;;;7.10;99.90;;;;;;5108102;27;20552;-75
2021/03/14 03:22:47;;;;;;;17.02;2.60;;;7.10;99.90;;;;;;5108533;27;20208;-74
2021/03/14 03:25:14;;;;;;;22.58;2.97;;;7.10;99.90;;;;;;5107033;27;20221;-74
2021/03/14 03:27:40;;;;;;;15.55;2.78;;;7.10;99.90;;;;;;5105401;27;20197;-74
2021/03/14 03:30:09;;;;;;;20.67;2.60;;;7.10;99.90;;;;;;5105438;28;20266;-73
2021/03/14 03:32:36;;;;;;;24.67;3.20;;;7.10;99.90;;;;;;5105546;27;20201;-74
2021/03/14 03:35:05;;;;;;;18.92;2.38;;;7.10;99.90;;;;;;5107078;27;20205;-74
2021/03/14 03:37:31;;;;;;;18.77;2.85;;;7.10;99.90;;;;;;5105763;27;20222;-74
2021/03/14 03:39:58;;;;;;;19.90;2.97;;;7.10;99.90;;;;;;5087531;27;20209;-74
2021/03/14 03:42:27;;;;;;;21.48;2.65;;;7.10;99.90;;;;;;5105126;27;20190;-73
2021/03/14 03:44:54;;;;;;;17.15;2.70;;;7.10;99.90;;;;;;5106931;27;20205;-73
2021/03/14 03:47:22;;;;;;;24.20;2.80;;;7.00;99.90;;;;;;5086825;27;20200;-73
2021/03/14 03:49:52;;;;;;;17.35;2.83;;;7.00;99.90;;;;;;5105527;27;20194;-74
2021/03/14 03:52:22;;;;;;;19.92;3.33;;;7.00;99.90;;;;;;5105990;27;20201;-74
2021/03/14 03:54:50;;;;;;;21.15;3.33;;;7.00;99.90;;;;;;5105259;27;20198;-74
2021/03/14 03:57:18;;;;;;;21.20;2.70;;;6.90;99.90;;;;;;5107756;27;20197;-74
2021/03/14 03:59:46;;;;;;;19.88;2.85;;;6.90;99.90;;;;;;5105618;27;20665;-74
2021/03/14 04:02:13;;;;;;;17.48;2.72;;;6.90;99.90;;;;;;5085979;27;20225;-75
2021/03/14 04:04:41;;;;;;;13.30;2.58;;;6.90;99.90;;;;;;5106793;28;20208;-73
2021/03/14 04:07:10;;;;;;;15.52;2.50;;;6.90;99.90;;;;;;5105254;27;20284;-73
2021/03/14 04:09:38;;;;;;;18.10;3.03;;;6.90;99.90;;;;;;5105273;27;20201;-73
2021/03/14 04:12:06;;;;;;;18.48;2.60;;;6.90;99.90;;;;;;5103744;27;20202;-74
2021/03/14 04:14:34;;;;;;;18.67;2.42;;;6.90;99.90;;;;;;5106421;27;20538;-74
2021/03/14 04:17:02;;;;;;;15.10;2.58;;;6.90;99.90;;;;;;5106692;27;20201;-74
2021/03/14 04:19:32;;;;;;;20.52;2.97;;;7.00;99.90;;;;;;5108009;27;20733;-74
2021/03/14 04:21:59;;;;;;;22.25;3.10;;;7.00;99.90;;;;;;5105833;27;20247;-73
2021/03/14 04:24:28;;;;;;;18.63;2.65;;;7.00;99.90;;;;;;5091132;27;20217;-74
2021/03/14 04:26:58;;;;;;;16.90;2.72;;;7.00;99.90;;;;;;5105617;27;20699;-73
2021/03/14 04:29:27;;;;;;;24.45;3.00;;;7.00;99.90;;;;;;5107160;28;20205;-73
2021/03/14 04:31:55;;;;;;;16.33;2.92;;;6.90;99.90;;;;;;5107258;27;20249;-75
2021/03/14 04:34:23;;;;;;;18.98;3.10;;;6.90;99.90;;;;;;5107028;27;20275;-75
2021/03/14 04:36:50;;;;;;;16.52;3.35;;;6.90;99.90;;;;;;5108740;27;20204;-74
2021/03/14 04:39:17;;;;;;;19.80;3.10;;;6.90;99.90;;;;;;5106024;27;20233;-73
2021/03/14 04:41:46;;;;;;;14.55;2.78;;;7.00;99.90;;;;;;5106680;27;20591;-74
2021/03/14 04:44:15;;;;;;;27.38;2.95;;;7.00;99.90;;;;;;5088668;28;20228;-73
2021/03/14 04:46:44;;;;;;;18.35;3.28;;;7.00;99.90;;;;;;5091384;28;20262;-74
2021/03/14 04:49:10;;;;;;;22.27;3.63;;;7.00;99.90;;;;;;5107591;27;20658;-74
2021/03/14 04:51:41;;;;;;;18.83;3.47;;;7.00;99.90;;;;;;5089413;27;20977;-74
2021/03/14 04:54:10;;;;;;;17.65;3.08;;;7.00;99.90;;;;;;5106215;27;20208;-74
2021/03/14 04:56:38;;;;;;;23.23;3.50;;;7.00;99.90;;;;;;5104375;27;20201;-74
2021/03/14 04:59:08;;;;;;;19.48;3.05;;;7.00;99.90;;;;;;5103297;27;20205;-74
2021/03/14 05:01:37;;;;;;;17.85;3.17;;;7.00;99.90;;;;;;5104490;27;21040;-74
2021/03/14 05:04:04;;;;;;;17.48;2.85;;;7.00;99.90;;;;;;5086727;28;20371;-74
2021/03/14 05:06:32;;;;;;;22.08;3.70;;;7.00;99.90;;;;;;5104524;28;20201;-74
2021/03/14 05:08:59;;;;;;;13.30;2.95;;;7.00;99.90;;;;;;5103293;27;20258;-73
2021/03/14 05:11:25;;;;;;;16.38;3.13;;;7.00;99.90;;;;;;5106632;27;20215;-74
2021/03/14 05:13:52;;;;;;;14.25;3.28;;;7.00;99.90;;;;;;5103668;27;20208;-73
2021/03/14 05:16:19;;;;;;;17.33;3.40;;;7.00;99.90;;;;;;5105286;27;20650;-74
2021/03/14 05:18:47;;;;;;;21.20;3.53;;;7.00;99.90;;;;;;5086024;28;20201;-73
2021/03/14 05:21:14;;;;;;;17.52;3.10;;;7.00;99.90;;;;;;5100963;28;20222;-73
2021/03/14 05:23:42;;;;;;;21.58;3.58;;;7.00;99.90;;;;;;5102836;28;20201;-75
2021/03/14 05:26:12;;;;;;;19.45;3.83;;;7.00;99.90;;;;;;5100794;27;20268;-74
2021/03/14 05:28:40;;;;;;;23.88;4.10;;;7.00;99.90;;;;;;5101617;28;20201;-74
2021/03/14 05:31:30;;;;;;;29.73;4.72;;;7.00;99.90;;;;;;5103942;28;20193;-73
2021/03/14 05:33:59;;;;;;;18.23;4.15;;;7.10;99.90;;;;;;5082845;28;20209;-74
2021/03/14 05:36:26;;;;;;;18.65;3.78;;;7.00;99.90;;;;;;5103098;28;20220;-74
2021/03/14 05:38:53;;;;;;;19.55;4.32;;;7.00;99.90;;;;;;5102812;27;20243;-74
2021/03/14 05:41:20;;;;;;;17.70;3.80;;;7.00;99.90;;;;;;5104429;28;20217;-73
2021/03/14 05:43:47;;;;;;;15.18;3.70;;;7.00;99.90;;;;;;5102655;28;20215;-73
2021/03/14 05:46:14;;;;;;;23.70;4.13;;;7.00;99.90;;;;;;5085173;28;20292;-73
2021/03/14 05:48:42;;;;;;;18.67;4.43;;;7.00;99.90;;;;;;5085427;28;20724;-74
2021/03/14 05:51:09;;;;;;;15.80;4.13;;;7.00;99.90;;;;;;5102814;28;20843;-72
2021/03/14 05:53:39;;;;;;;27.85;4.13;;;7.00;99.90;;;;;;5102435;28;20201;-74
2021/03/14 05:56:06;;;;;;;23.55;4.60;;;7.00;99.90;;;;;;5105524;28;20201;-75
2021/03/14 05:58:33;;;;;;;21.33;4.30;;;7.00;99.90;;;;;;5104615;28;20189;-74
2021/03/14 06:01:01;;;;;;;22.92;3.97;;;7.00;99.90;;;;;;5102977;28;20210;-74
2021/03/14 06:03:28;;;;;;;23.85;4.07;;;7.00;99.90;;;;;;5103543;28;20201;-73
2021/03/14 06:05:55;;;;;;;21.02;4.95;;;6.90;99.90;;;;;;5108850;28;20205;-74
2021/03/14 06:08:22;;;;;;;24.60;4.88;;;6.90;99.90;;;;;;5110414;27;20209;-76
2021/03/14 06:10:49;;;;;;;28.20;5.05;;;6.90;99.90;;;;;;5093136;28;20201;-75
2021/03/14 06:13:16;;;;;;;26.08;4.60;;;6.90;99.90;;;;;;5108305;27;20205;-76
2021/03/14 06:15:42;;;;;;;31.85;4.78;;;6.90;99.90;;;;;;5110109;27;20205;-77
2021/03/14 06:18:09;;;;;;;26.88;4.78;;;7.00;99.90;;;;;;5090168;27;20201;-76
2021/03/14 06:20:37;;;;;;;18.38;4.78;;;6.90;99.90;;;;;;5094929;28;20221;-76
2021/03/14 06:23:08;;;;;;;25.05;4.97;;;6.90;99.90;;;;;;5108128;27;20213;-77
2021/03/14 06:25:36;;;;;;;21.58;4.38;;;7.00;99.90;;;;;;5110520;27;20201;-76
2021/03/14 06:28:03;;;;;;;21.17;4.70;;;6.90;99.90;;;;;;5107825;27;20577;-77
2021/03/14 06:30:32;;;;;;;26.40;5.13;;;7.00;99.90;;;;;;5108334;27;20212;-76
2021/03/14 06:33:08;;;;;;;21.50;4.75;;;7.00;99.90;;;;;;5091210;28;20701;-77
2021/03/14 06:35:43;;;;;;;32.88;4.97;;;7.00;99.90;;;;;;5109790;27;20209;-76
2021/03/14 06:38:24;;;;;;;19.17;4.75;;;7.00;99.90;;;;;;5108734;28;20732;-77
2021/03/14 06:40:54;;;;;;;24.70;4.70;;;7.00;99.90;;;;;;5108279;27;20220;-77
2021/03/14 06:43:21;;;;;;;24.77;4.53;;;7.00;99.90;;;;;;5109747;27;20246;-77
2021/03/14 06:45:47;;;;;;;34.03;4.65;;;7.10;99.90;;;;;;5091227;28;20202;-77
2021/03/14 06:48:24;;;;;;;29.10;5.40;;;7.10;99.90;;;;;;5109848;27;20594;-77
2021/03/14 06:50:51;;;;;;;18.90;4.47;;;7.10;99.90;;;;;;5110593;27;20193;-77
2021/03/14 06:53:20;;;;;;;19.35;4.28;;;7.10;99.90;;;;;;5092526;28;20201;-77
2021/03/14 06:55:48;;;;;;;22.92;5.03;;;7.10;99.90;;;;;;5111338;27;20544;-77
2021/03/14 06:58:27;;;;;;;22.25;4.47;;;7.20;99.90;;;;;;5111912;27;20272;-76
2021/03/14 07:01:10;;;;;;;22.23;4.57;;;7.20;99.90;;;;;;5109518;28;20275;-76
2021/03/14 07:03:38;;;;;;;29.45;5.07;;;7.20;99.90;;;;;;5108210;27;20201;-76
2021/03/14 07:06:18;;;;;;;25.55;4.70;;;7.20;99.90;;;;;;5106390;27;20198;-76
2021/03/14 07:08:46;;;;;;;21.05;4.60;;;7.20;99.90;;;;;;5092109;28;20216;-75
2021/03/14 07:11:13;;;;;;;27.95;5.15;;;7.20;99.90;;;;;;5107637;27;21028;-74
2021/03/14 07:13:51;;;;;;;27.85;5.10;;;7.20;99.90;;;;;;5109897;27;20649;-74
2021/03/14 07:16:17;;;;;;;29.92;4.90;;;7.20;99.90;;;;;;5108280;27;20205;-75
2021/03/14 07:18:50;;;;;;;22.17;4.63;;;7.30;99.90;;;;;;5105035;27;20437;-78
2021/03/14 07:21:25;;;;;;;27.83;5.07;;;7.30;99.90;;;;;;5085237;27;20278;-75
2021/03/14 07:23:51;;;;;;;16.67;4.22;;;7.30;99.90;;;;;;5107824;27;20229;-75
2021/03/14 07:26:39;;;;;;;25.55;5.50;;;7.30;99.90;;;;;;5107492;27;20311;-75
2021/03/14 07:29:08;;;;;;;21.27;4.65;;;7.40;99.90;;;;;;5105246;27;20559;-76
2021/03/14 07:31:35;;;;;;;29.13;4.72;;;7.40;99.90;;;;;;5108015;27;20633;-75
2021/03/14 07:34:02;;;;;;;17.98;3.97;;;7.40;99.90;;;;;;5106772;27;20217;-76
2021/03/14 07:36:29;;;;;;;27.40;4.38;;;7.40;99.90;;;;;;5106811;28;20206;-75
2021/03/14 07:38:56;;;;;;;20.70;3.55;;;7.50;99.90;;;;;;5108254;27;20224;-75
2021/03/14 07:41:24;;;;;;;21.45;3.97;;;7.50;99.90;;;;;;5106742;27;20221;-75
2021/03/14 07:43:51;;;;;;;20.95;3.78;;;7.50;99.90;;;;;;5087722;28;20205;-74
2021/03/14 07:46:21;;;;;;;26.90;4.43;;;7.50;99.90;;;;;;5103431;27;20216;-74
2021/03/14 07:48:50;;;;;;;20.73;4.20;;;7.50;99.90;;;;;;5088546;28;20216;-75
2021/03/14 07:51:18;;;;;;;17.55;3.95;;;7.50;99.90;;;;;;5107397;27;20259;-75
2021/03/14 07:53:45;;;;;;;21.83;3.88;;;7.60;99.90;;;;;;5104866;27;20205;-76
2021/03/14 07:56:12;;;;;;;19.45;3.45;;;7.60;99.90;;;;;;5088231;27;20205;-74
2021/03/14 07:58:38;;;;;;;16.60;3.25;;;7.60;99.90;;;;;;5107538;27;20189;-75
2021/03/14 08:01:25;;;;;;;21.95;3.40;;;7.60;99.90;;;;;;5090353;27;20217;-75
2021/03/14 08:03:52;;;;;;;24.10;3.40;;;7.70;99.90;;;;;;5101749;28;20208;-76
2021/03/14 08:06:49;;;;;;;19.63;3.03;;;7.70;99.90;;;;;;5106555;27;20239;-76
2021/03/14 08:09:44;;;;;;;26.65;3.70;;;7.70;99.90;;;;;;5087199;28;20209;-78
2021/03/14 08:12:24;;;;;;;21.33;3.10;;;7.70;99.90;;;;;;5085685;28;20224;-77
2021/03/14 08:14:52;;;;;;;24.52;4.93;;;7.80;99.90;;;;;;5106484;27;20296;-77
2021/03/14 08:17:21;;;;;;;26.77;3.70;;;7.80;99.90;;;;;;5088134;28;20250;-75
2021/03/14 08:19:51;;;;;;;24.25;3.60;;;7.80;99.90;;;;;;5088356;28;20293;-76
2021/03/14 08:22:49;;;;;;;25.63;3.45;;;7.80;99.90;;;;;;5105103;27;20263;-76
2021/03/14 08:25:26;;;;;;;20.65;3.40;;;7.90;99.90;;;;;;5106769;27;20199;-76
2021/03/14 08:27:55;;;;;;;18.92;3.03;;;7.90;99.90;;;;;;5083744;28;20197;-75
2021/03/14 08:30:42;;;;;;;20.98;2.85;;;7.90;99.90;;;;;;5109202;27;20265;-77
2021/03/14 08:33:47;;;;;;;19.58;3.15;;;7.90;99.90;;;;;;5088303;28;20209;-77
2021/03/14 08:36:35;;;;;;;27.63;3.25;;;7.90;99.90;;;;;;5076130;28;20291;-80
2021/03/14 08:39:07;;;;;;;18.85;3.10;;;8.00;99.90;;;;;;5087284;28;20225;-77
2021/03/14 08:41:40;;;;;;;19.52;2.33;;;8.00;99.90;;;;;;5085513;28;20232;-76
2021/03/14 08:44:14;;;;;;;14.23;2.25;;;8.00;99.90;;;;;;5086452;28;20206;-76
2021/03/14 08:47:03;;;;;;;14.45;2.20;;;8.00;99.90;;;;;;5080644;28;20205;-76
2021/03/14 08:49:34;;;;;;;19.65;2.60;;;8.00;99.90;;;;;;5083905;28;20224;-77
2021/03/14 08:52:02;;;;;;;18.85;2.70;;;8.00;99.90;;;;;;5084421;28;20666;-76
2021/03/14 08:54:34;;;;;;;13.88;2.70;;;8.00;99.90;;;;;;5082960;28;20202;-76
2021/03/14 08:57:03;;;;;;;13.80;2.90;;;8.00;99.90;;;;;;5084168;28;20790;-76
2021/03/14 08:59:30;;;;;;;18.33;3.08;;;8.00;99.90;;;;;;5084389;28;20230;-76
2021/03/14 09:01:59;;;;;;;19.75;2.70;;;8.00;99.90;;;;;;5085805;28;20237;-74
2021/03/14 09:04:33;;;;;;;23.10;2.90;;;8.10;99.90;;;;;;5081831;28;20682;-77
2021/03/14 09:07:19;;;;;;;20.65;2.65;;;8.10;99.90;;;;;;5080003;28;20207;-75
2021/03/14 09:09:49;;;;;;;25.23;2.97;;;8.10;99.90;;;;;;5085339;28;20374;-74
2021/03/14 09:12:41;;;;;;;23.60;3.83;;;8.20;99.90;;;;;;5080913;28;20208;-74
2021/03/14 09:15:15;;;;;;;25.33;3.28;;;8.20;99.90;;;;;;5079078;28;20198;-75
2021/03/14 09:18:03;;;;;;;19.05;2.90;;;8.20;99.90;;;;;;5081855;28;20578;-76
2021/03/14 09:20:31;;;;;;;15.45;2.35;;;8.20;99.90;;;;;;5078293;28;20202;-75
2021/03/14 09:23:05;;;;;;;21.15;2.90;;;8.20;99.90;;;;;;5082588;28;20256;-76
2021/03/14 09:25:36;;;;;;;18.23;3.20;;;8.20;99.90;;;;;;5083958;28;20229;-74
2021/03/14 09:28:03;;;;;;;22.17;2.58;;;8.30;99.90;;;;;;5081217;28;20233;-77
2021/03/14 09:30:41;;;;;;;12.52;2.53;;;8.30;99.90;;;;;;5084050;28;20198;-75
2021/03/14 09:33:09;;;;;;;20.38;2.80;;;8.30;99.90;;;;;;5076631;28;20202;-75
2021/03/14 09:35:46;;;;;;;17.05;2.85;;;8.30;99.90;;;;;;5083748;28;20213;-76
2021/03/14 09:38:22;;;;;;;19.15;2.60;;;8.40;99.90;;;;;;5071653;28;20258;-75
2021/03/14 09:41:04;;;;;;;22.15;2.40;;;8.30;99.90;;;;;;5062771;28;20280;-76
2021/03/14 09:43:33;;;;;;;19.65;3.00;;;8.40;99.90;;;;;;5063311;28;20233;-76
2021/03/14 09:46:08;;;;;;;27.77;2.80;;;8.40;99.90;;;;;;5061227;28;20228;-75
2021/03/14 09:48:43;;;;;;;20.50;2.78;;;8.30;99.90;;;;;;5064229;28;20210;-76
2021/03/14 09:51:11;;;;;;;23.02;3.08;;;8.40;99.90;;;;;;5062523;28;20206;-75
2021/03/14 09:53:40;;;;;;;19.88;2.65;;;8.40;99.90;;;;;;5063884;28;20716;-76
2021/03/14 09:56:13;;;;;;;15.20;3.05;;;8.50;99.90;;;;;;5061208;28;20202;-76
2021/03/14 09:59:01;;;;;;;24.15;2.72;;;8.50;99.90;;;;;;5066108;28;20335;-77
2021/03/14 10:01:28;;;;;;;21.67;3.17;;;8.50;99.90;;;;;;5064275;28;20576;-76
2021/03/14 10:03:58;;;;;;;21.92;2.67;;;8.60;99.90;;;;;;5060326;28;20295;-75
2021/03/14 10:06:39;;;;;;;19.55;2.70;;;8.60;99.90;;;;;;5060976;28;20222;-76
2021/03/14 10:09:20;;;;;;;22.70;2.92;;;8.70;99.90;;;;;;5066191;28;20217;-76
2021/03/14 10:11:48;;;;;;;20.40;2.70;;;8.70;99.90;;;;;;5061986;28;20191;-78
2021/03/14 10:14:17;;;;;;;21.48;2.65;;;8.70;99.90;;;;;;5065959;28;20214;-76
2021/03/14 10:16:44;;;;;;;17.38;2.35;;;8.80;99.90;;;;;;5062754;28;20206;-76
2021/03/14 10:19:12;;;;;;;20.35;2.38;;;8.80;99.90;;;;;;5064407;28;20209;-76
2021/03/14 10:21:45;;;;;;;15.98;2.38;;;8.70;99.90;;;;;;5066180;28;20204;-77
2021/03/14 10:24:21;;;;;;;17.67;3.00;;;8.70;99.90;;;;;;5065965;28;20221;-78
2021/03/14 10:27:01;;;;;;;19.73;3.17;;;8.70;99.90;;;;;;5063283;28;20207;-77
2021/03/14 10:29:38;;;;;;;16.08;3.05;;;8.80;99.90;;;;;;5062557;28;20206;-76
2021/03/14 10:32:36;;;;;;;20.00;2.97;;;8.80;99.90;;;;;;5049934;28;20352;-75
2021/03/14 10:35:14;;;;;;;24.73;3.20;;;8.80;99.90;;;;;;5062392;28;20240;-75
2021/03/14 10:37:43;;;;;;;21.42;3.22;;;8.80;99.90;;;;;;5057516;28;20314;-76
2021/03/14 10:40:22;;;;;;;17.15;3.20;;;8.90;99.90;;;;;;5059673;28;20202;-75
2021/03/14 10:42:52;;;;;;;19.25;2.78;;;8.90;99.90;;;;;;5061833;28;20225;-77
2021/03/14 10:45:28;;;;;;;23.83;3.67;;;8.90;99.90;;;;;;5058374;28;20200;-75
2021/03/14 10:48:05;;;;;;;19.70;3.00;;;8.90;99.90;;;;;;5060998;28;20568;-75
2021/03/14 10:50:38;;;;;;;21.08;3.90;;;8.90;99.90;;;;;;5061689;28;20242;-74
2021/03/14 10:53:15;;;;;;;20.55;3.22;;;8.90;99.90;;;;;;5065681;28;20301;-75
2021/03/14 10:55:44;;;;;;;28.10;3.65;;;8.90;99.90;;;;;;5066524;28;20225;-77
2021/03/14 10:58:14;;;;;;;13.73;2.50;;;8.90;99.90;;;;;;5067916;28;20202;-77
2021/03/14 11:00:49;;;;;;;19.27;3.60;;;9.00;99.90;;;;;;5068044;28;20214;-77
2021/03/14 11:03:27;;;;;;;16.17;3.08;;;9.00;99.90;;;;;;5066356;28;20208;-79
2021/03/14 11:06:08;;;;;;;24.00;3.17;;;9.00;99.90;;;;;;5067428;28;20205;-77
2021/03/14 11:08:53;;;;;;;21.35;3.58;;;9.00;99.90;;;;;;5065237;28;20199;-76
2021/03/14 11:11:35;;;;;;;13.75;3.15;;;9.00;99.90;;;;;;5066669;28;20210;-77
2021/03/14 11:14:02;;;;;;;21.90;2.88;;;9.10;99.90;;;;;;5068959;28;20202;-77
2021/03/14 11:17:12;;;;;;;17.27;2.63;;;9.10;99.90;;;;;;5068940;28;20309;-77
2021/03/14 11:19:45;;;;;;;21.73;3.45;;;9.10;99.90;;;;;;5066018;28;20655;-78
2021/03/14 11:22:13;;;;;;;20.05;2.80;;;9.20;99.90;;;;;;5069476;28;20313;-79
2021/03/14 11:24:47;;;;;;;15.93;3.08;;;9.20;99.90;;;;;;5067822;28;20190;-77
2021/03/14 11:27:16;;;;;;;21.38;3.63;;;9.20;99.90;;;;;;5068664;28;20214;-78
2021/03/14 11:29:43;;;;;;;17.98;3.67;;;9.20;99.90;;;;;;5068211;28;22228;-78
2021/03/14 11:32:15;;;;;;;21.63;2.95;;;9.20;99.90;;;;;;5068428;28;20260;-77
2021/03/14 11:34:48;;;;;;;22.88;3.00;;;9.20;99.90;;;;;;5063085;28;20206;-76
2021/03/14 11:37:46;;;;;;;18.17;2.92;;;9.30;99.90;;;;;;5075640;27;20750;-76
2021/03/14 11:40:40;;;;;;;29.00;3.22;;;9.20;99.90;;;;;;5102924;27;20215;-76
2021/03/14 11:43:26;;;;;;;27.98;3.05;;;9.20;99.90;;;;;;5106339;27;20269;-78
2021/03/14 11:46:06;;;;;;;28.40;3.60;;;9.30;99.90;;;;;;5085216;27;20209;-77
2021/03/14 11:48:32;;;;;;;25.52;3.33;;;9.30;99.90;;;;;;5090351;28;20201;-78
2021/03/14 11:51:08;;;;;;;18.80;2.67;;;9.40;99.90;;;;;;5087579;28;20717;-76
2021/03/14 11:53:35;;;;;;;19.33;2.75;;;9.50;99.90;;;;;;5086753;28;20212;-77
2021/03/14 11:56:04;;;;;;;20.65;3.80;;;9.60;99.90;;;;;;5104068;27;20236;-77
2021/03/14 11:58:50;;;;;;;20.02;2.90;;;9.70;99.90;;;;;;5104315;27;20575;-75
2021/03/14 12:01:21;;;;;;;17.63;2.80;;;9.80;99.90;;;;;;5086559;28;20312;-75
2021/03/14 12:03:49;;;;;;;22.92;2.83;;;9.70;99.90;;;;;;5090344;28;20212;-76
2021/03/14 12:06:19;;;;;;;21.48;3.28;;;9.70;99.80;;;;;;5088125;27;20205;-75
2021/03/14 12:09:05;;;;;;;28.35;3.00;;;9.70;99.80;;;;;;5090169;28;20197;-76
2021/03/14 12:11:35;;;;;;;20.88;3.22;;;9.70;99.70;;;;;;5107094;27;20201;-75
2021/03/14 12:14:03;;;;;;;23.15;3.15;;;9.60;99.50;;;;;;5103177;28;20267;-76
2021/03/14 12:17:03;;;;;;;26.65;3.33;;;9.60;99.40;;;;;;5050023;27;20255;-76
2021/03/14 12:19:56;;;;;;;32.05;3.30;;;9.60;99.40;;;;;;5084030;28;20211;-76
2021/03/14 12:22:31;;;;;;;23.13;2.97;;;9.50;99.40;;;;;;5088389;28;20223;-74
2021/03/14 12:24:58;;;;;;;30.08;3.33;;;9.50;99.50;;;;;;5090692;28;20767;-75
2021/03/14 12:27:25;;;;;;;26.15;3.33;;;9.50;99.50;;;;;;5104735;27;20244;-75
2021/03/14 12:29:51;;;;;;;27.35;3.42;;;9.50;99.40;;;;;;5087648;28;20729;-77
2021/03/14 12:32:24;;;;;;;20.98;3.10;;;9.50;99.30;;;;;;5087595;27;20197;-75
2021/03/14 12:34:51;;;;;;;27.05;3.10;;;9.50;99.20;;;;;;5088717;28;20654;-75
2021/03/14 12:37:23;;;;;;;21.90;3.20;;;9.40;99.20;;;;;;5087465;27;20202;-75
2021/03/14 12:39:57;;;;;;;19.70;2.60;;;9.40;99.30;;;;;;5088055;28;20197;-76
2021/03/14 12:42:24;;;;;;;22.73;2.92;;;9.50;99.30;;;;;;5084229;28;20598;-75
2021/03/14 12:44:55;;;;;;;22.50;3.10;;;9.50;99.30;;;;;;5104603;27;20227;-77
2021/03/14 12:47:22;;;;;;;19.70;2.95;;;9.50;99.30;;;;;;5088491;27;20621;-78
2021/03/14 12:49:48;;;;;;;17.20;3.03;;;9.60;99.30;;;;;;5106861;27;21004;-78
2021/03/14 12:52:15;;;;;;;21.58;2.95;;;9.60;99.40;;;;;;5092592;28;20207;-78
2021/03/14 12:54:41;;;;;;;26.55;3.25;;;9.70;99.30;;;;;;5090662;28;20201;-78
2021/03/14 12:57:08;;;;;;;20.92;2.85;;;9.70;99.10;;;;;;5091294;28;20205;-77
2021/03/14 12:59:36;;;;;;;17.88;3.00;;;9.80;99.10;;;;;;5087195;28;20284;-78
2021/03/14 13:02:03;;;;;;;25.33;3.50;;;9.80;98.90;;;;;;5107023;27;20235;-77
2021/03/14 13:04:29;;;;;;;19.63;2.92;;;9.80;98.80;;;;;;5105406;27;20220;-76
2021/03/14 13:06:56;;;;;;;24.40;3.40;;;9.80;98.60;;;;;;5106728;27;20209;-75
2021/03/14 13:09:22;;;;;;;23.67;3.20;;;9.80;98.40;;;;;;5107092;27;20201;-76